地図

経路データ

SID SEASON NUMBER BASIN SUBBASIN NAME ISO_TIME NATURE LAT LON WMO_WIND WMO_PRES WMO_AGENCY TRACK_TYPE DIST2LAND LANDFALL IFLAG USA_AGENCY USA_ATCF_ID USA_LAT USA_LON USA_RECORD USA_STATUS USA_WIND USA_PRES USA_SSHS USA_R34_NE USA_R34_SE USA_R34_SW USA_R34_NW USA_R50_NE USA_R50_SE USA_R50_SW USA_R50_NW USA_R64_NE USA_R64_SE USA_R64_SW USA_R64_NW USA_POCI USA_ROCI USA_RMW USA_EYE TOKYO_LAT TOKYO_LON TOKYO_GRADE TOKYO_WIND TOKYO_PRES TOKYO_R50_DIR TOKYO_R50_LONG TOKYO_R50_SHORT TOKYO_R30_DIR TOKYO_R30_LONG TOKYO_R30_SHORT TOKYO_LAND CMA_LAT CMA_LON CMA_CAT CMA_WIND CMA_PRES HKO_LAT HKO_LON HKO_CAT HKO_WIND HKO_PRES NEWDELHI_LAT NEWDELHI_LON NEWDELHI_GRADE NEWDELHI_WIND NEWDELHI_PRES NEWDELHI_CI NEWDELHI_DP NEWDELHI_POCI REUNION_LAT REUNION_LON REUNION_TYPE REUNION_WIND REUNION_PRES REUNION_TNUM REUNION_CI REUNION_RMW REUNION_R34_NE REUNION_R34_SE REUNION_R34_SW REUNION_R34_NW REUNION_R50_NE REUNION_R50_SE REUNION_R50_SW REUNION_R50_NW REUNION_R64_NE REUNION_R64_SE REUNION_R64_SW REUNION_R64_NW BOM_LAT BOM_LON BOM_TYPE BOM_WIND BOM_PRES BOM_TNUM BOM_CI BOM_RMW BOM_R34_NE BOM_R34_SE BOM_R34_SW BOM_R34_NW BOM_R50_NE BOM_R50_SE BOM_R50_SW BOM_R50_NW BOM_R64_NE BOM_R64_SE BOM_R64_SW BOM_R64_NW BOM_ROCI BOM_POCI BOM_EYE BOM_POS_METHOD BOM_PRES_METHOD NADI_LAT NADI_LON NADI_CAT NADI_WIND NADI_PRES WELLINGTON_LAT WELLINGTON_LON WELLINGTON_WIND WELLINGTON_PRES DS824_LAT DS824_LON DS824_STAGE DS824_WIND DS824_PRES TD9636_LAT TD9636_LON TD9636_STAGE TD9636_WIND TD9636_PRES TD9635_LAT TD9635_LON TD9635_WIND TD9635_PRES TD9635_ROCI NEUMANN_LAT NEUMANN_LON NEUMANN_CLASS NEUMANN_WIND NEUMANN_PRES MLC_LAT MLC_LON MLC_CLASS MLC_WIND MLC_PRES USA_GUST BOM_GUST BOM_GUST_PER REUNION_GUST REUNION_GUST_PER USA_SEAHGT USA_SEARAD_NE USA_SEARAD_SE USA_SEARAD_SW USA_SEARAD_NW STORM_SPEED STORM_DIR
1920222N23127 1920 31 WP MM NOT_NAMED 1920-08-09 10:00:00 NR 23.0000 127.000 main 545 545 __________O___ -1 23.0000 127.000 7 4 77
1920222N23127 1920 31 WP MM NOT_NAMED 1920-08-09 12:00:00 NR 23.0273 127.138 main 554 554 __________P___ -1 23.0273 127.138 7 4 77
1920222N23127 1920 31 WP MM NOT_NAMED 1920-08-09 15:00:00 NR 23.0703 127.337 main 570 570 __________P___ -1 23.0703 127.337 7 4 75
1920222N23127 1920 31 WP MM NOT_NAMED 1920-08-09 18:00:00 NR 23.1192 127.516 main 590 590 __________P___ -1 23.1192 127.516 7 3 70
1920222N23127 1920 31 WP MM NOT_NAMED 1920-08-09 21:00:00 NR 23.1777 127.661 main 607 607 __________P___ -1 23.1777 127.661 7 3 64
1920222N23127 1920 31 WP MM NOT_NAMED 1920-08-09 22:00:00 NR 23.2000 127.700 main 607 607 __________O___ -1 23.2000 127.700 7 2 53
1920222N23127 1920 31 WP MM NOT_NAMED 1920-08-10 00:00:00 NR 23.2494 127.764 main 616 614 __________P___ -1 23.2494 127.764 7 2 46
1920222N23127 1920 31 WP MM NOT_NAMED 1920-08-10 03:00:00 NR 23.3362 127.853 main 624 621 __________P___ -1 23.3362 127.853 7 3 46
1920222N23127 1920 31 WP MM NOT_NAMED 1920-08-10 06:00:00 NR 23.4386 127.980 main 631 629 __________P___ -1 23.4386 127.980 7 4 55
1920222N23127 1920 31 WP MM NOT_NAMED 1920-08-10 09:00:00 NR 23.5570 128.198 main 647 647 __________P___ -1 23.5570 128.198 7 5 61
1920222N23127 1920 31 WP MM NOT_NAMED 1920-08-10 10:00:00 NR 23.6000 128.300 main 656 656 __________O___ -1 23.6000 128.300 7 8 70
1920222N23127 1920 31 WP MM NOT_NAMED 1920-08-10 12:00:00 NR 23.6897 128.596 main 683 683 __________P___ -1 23.6897 128.596 7 10 73
1920222N23127 1920 31 WP MM NOT_NAMED 1920-08-10 15:00:00 NR 23.8363 129.141 main 730 738 __________P___ -1 23.8363 129.141 7 11 74
1920222N23127 1920 31 WP MM NOT_NAMED 1920-08-10 18:00:00 NR 23.9911 129.742 main 786 771 __________P___ -1 23.9911 129.742 7 11 74
1920222N23127 1920 31 WP MM NOT_NAMED 1920-08-10 21:00:00 NR 24.1481 130.324 main 771 759 __________P___ -1 24.1481 130.324 7 11 73
1920222N23127 1920 31 WP MM NOT_NAMED 1920-08-10 22:00:00 NR 24.2000 130.500 main 759 748 __________O___ -1 24.2000 130.500 7 9 70
1920222N23127 1920 31 WP MM NOT_NAMED 1920-08-11 00:00:00 NR 24.2966 130.779 main 748 737 __________P___ -1 24.2966 130.779 7 8 68
1920222N23127 1920 31 WP MM NOT_NAMED 1920-08-11 03:00:00 NR 24.4421 131.148 main 738 717 __________P___ -1 24.4421 131.148 7 7 65
1920222N23127 1920 31 WP MM NOT_NAMED 1920-08-11 06:00:00 NR 24.5910 131.477 main 718 708 __________P___ -1 24.5910 131.477 7 7 63
1920222N23127 1920 31 WP MM NOT_NAMED 1920-08-11 09:00:00 NR 24.7463 131.793 main 711 700 __________P___ -1 24.7463 131.793 7 7 61
1920222N23127 1920 31 WP MM NOT_NAMED 1920-08-11 10:00:00 NR 24.8000 131.900 main 702 692 __________O___ -1 24.8000 131.900 7 7 62
1920222N23127 1920 31 WP MM NOT_NAMED 1920-08-11 12:00:00 NR 24.9190 132.157 main 696 679 __________P___ -1 24.9190 132.157 7 8 62
1920222N23127 1920 31 WP MM NOT_NAMED 1920-08-11 15:00:00 NR 25.1039 132.542 main 681 668 __________P___ -1 25.1039 132.542 7 8 62
1920222N23127 1920 31 WP MM NOT_NAMED 1920-08-11 18:00:00 NR 25.2853 132.904 main 671 660 __________P___ -1 25.2853 132.904 7 7 60
1920222N23127 1920 31 WP MM NOT_NAMED 1920-08-11 21:00:00 NR 25.4506 133.213 main 660 660 __________P___ -1 25.4506 133.213 7 6 59
1920222N23127 1920 31 WP MM NOT_NAMED 1920-08-11 22:00:00 NR 25.5000 133.300 main 664 658 __________O___ -1 25.5000 133.300 7 5 56
1920222N23127 1920 31 WP MM NOT_NAMED 1920-08-12 00:00:00 NR 25.5807 133.427 main 658 651 __________P___ -1 25.5807 133.427 7 4 52
1920222N23127 1920 31 WP MM NOT_NAMED 1920-08-12 03:00:00 NR 25.6832 133.561 main 656 645 __________P___ -1 25.6832 133.561 7 3 47
1920222N23127 1920 31 WP MM NOT_NAMED 1920-08-12 06:00:00 NR 25.7745 133.659 main 650 640 __________P___ -1 25.7745 133.659 7 3 44
1920222N23127 1920 31 WP MM NOT_NAMED 1920-08-12 09:00:00 NR 25.8668 133.760 main 644 644 __________P___ -1 25.8668 133.760 7 3 45
1920222N23127 1920 31 WP MM NOT_NAMED 1920-08-12 10:00:00 NR 25.9000 133.800 main 644 644 __________O___ -1 25.9000 133.800 7 3 59
1920222N23127 1920 31 WP MM NOT_NAMED 1920-08-12 12:00:00 NR 25.9488 133.914 main 649 639 __________P___ -1 25.9488 133.914 7 4 65
1920222N23127 1920 31 WP MM NOT_NAMED 1920-08-12 15:00:00 NR 26.0276 134.104 main 649 644 __________P___ -1 26.0276 134.104 7 4 62
1920222N23127 1920 31 WP MM NOT_NAMED 1920-08-12 18:00:00 NR 26.1410 134.310 main 649 640 __________P___ -1 26.1410 134.310 7 5 52
1920222N23127 1920 31 WP MM NOT_NAMED 1920-08-12 21:00:00 NR 26.3202 134.527 main 642 638 __________P___ -1 26.3202 134.527 7 6 45
1920222N23127 1920 31 WP MM NOT_NAMED 1920-08-12 22:00:00 NR 26.4000 134.600 main 638 624 __________O___ -1 26.4000 134.600 7 7 39
1920222N23127 1920 31 WP MM NOT_NAMED 1920-08-13 00:00:00 NR 26.5962 134.775 main 629 602 __________P___ -1 26.5962 134.775 7 8 35
1920222N23127 1920 31 WP MM NOT_NAMED 1920-08-13 03:00:00 NR 26.9596 135.044 main 602 584 __________P___ -1 26.9596 135.044 7 9 30
1920222N23127 1920 31 WP MM NOT_NAMED 1920-08-13 06:00:00 NR 27.3836 135.287 main 584 557 __________P___ -1 27.3836 135.287 7 10 23
1920222N23127 1920 31 WP MM NOT_NAMED 1920-08-13 09:00:00 NR 27.8432 135.463 main 563 547 __________P___ -1 27.8432 135.463 7 10 17
1920222N23127 1920 31 WP MM NOT_NAMED 1920-08-13 10:00:00 NR 28.0000 135.500 main 547 524 __________O___ -1 28.0000 135.500 7 10 8
1920222N23127 1920 31 WP MM NOT_NAMED 1920-08-13 12:00:00 NR 28.3148 135.535 main 524 489 __________P___ -1 28.3148 135.535 7 10 2
1920222N23127 1920 31 WP MM NOT_NAMED 1920-08-13 15:00:00 NR 28.7889 135.504 main 489 442 __________P___ -1 28.7889 135.504 7 10 353
1920222N23127 1920 31 WP MM NOT_NAMED 1920-08-13 18:00:00 NR 29.2647 135.400 main 442 399 __________P___ -1 29.2647 135.400 7 10 347
1920222N23127 1920 31 WP MM NOT_NAMED 1920-08-13 21:00:00 NR 29.7411 135.253 main 399 375 __________P___ -1 29.7411 135.253 7 10 345
1920222N23127 1920 31 WP MM NOT_NAMED 1920-08-13 22:00:00 NR 29.9000 135.200 main 375 __________O___ -1 29.9000 135.200 7 10 347

デジタル台風データ・検索

IBTrACS Databaseについて

本データベースは、米国NOAAが公開する1842年以降の世界の熱帯低気圧のベストトラックデータアーカイブInternational Best Track Archive for Climate Stewardship (IBTrACS)を、ウェブで閲覧しやすい形式に変換したものです。

最終更新日:2021-10-08